createdAt,value
2023-04-26T00:00:11.347Z,5.9346
2023-04-26T00:01:12.042Z,5.9572
2023-04-26T00:02:12.797Z,6.0120
2023-04-26T00:03:13.628Z,6.0285
2023-04-26T00:04:14.817Z,6.0055
2023-04-26T00:05:15.742Z,6.0663
2023-04-26T00:06:16.455Z,6.1493
2023-04-26T00:07:17.138Z,6.1487
2023-04-26T00:08:17.776Z,6.0723
2023-04-26T00:09:18.505Z,6.0747
2023-04-26T00:10:19.171Z,6.0595
2023-04-26T00:11:19.835Z,6.1254
2023-04-26T00:12:20.542Z,6.1552
2023-04-26T00:13:21.260Z,6.2096
2023-04-26T00:14:21.900Z,6.2479
2023-04-26T00:15:22.584Z,6.2746
2023-04-26T00:16:23.255Z,6.2184
2023-04-26T00:17:23.896Z,6.1759
2023-04-26T00:18:24.516Z,6.2354
2023-04-26T00:19:25.159Z,6.1509
2023-04-26T00:20:25.787Z,6.0986
2023-04-26T00:21:26.439Z,6.1847
2023-04-26T00:22:27.052Z,6.1243
2023-04-26T00:23:27.730Z,6.2056
2023-04-26T00:24:28.468Z,6.2667
2023-04-26T00:25:29.130Z,6.2326
2023-04-26T00:26:29.773Z,6.2162
2023-04-26T00:27:30.430Z,6.2056
2023-04-26T00:28:31.045Z,6.1625
2023-04-26T00:29:31.748Z,6.1694
2023-04-26T00:30:32.445Z,6.1386
2023-04-26T00:31:33.107Z,6.1924
2023-04-26T00:32:33.751Z,6.1419
2023-04-26T00:33:34.475Z,6.1406
2023-04-26T00:34:35.167Z,6.1451
2023-04-26T00:35:35.834Z,6.1526
2023-04-26T00:36:36.608Z,6.1328
2023-04-26T00:37:37.336Z,6.1760
2023-04-26T00:38:37.960Z,6.1493
2023-04-26T00:39:38.700Z,6.0057
2023-04-26T00:40:39.374Z,6.1283
2023-04-26T00:41:40.084Z,6.1616
2023-04-26T00:42:40.741Z,6.2333
2023-04-26T00:43:41.426Z,6.1245
2023-04-26T00:44:42.110Z,6.1054
2023-04-26T00:45:42.839Z,6.0910
2023-04-26T00:46:43.471Z,6.1058
2023-04-26T00:47:44.162Z,6.1181
2023-04-26T00:48:44.790Z,6.0368
2023-04-26T00:49:45.483Z,6.0799
2023-04-26T00:50:46.159Z,6.0721
2023-04-26T00:51:46.829Z,6.2169
2023-04-26T00:52:47.558Z,6.2833
2023-04-26T00:53:48.210Z,6.2766
2023-04-26T00:54:48.939Z,6.3604
2023-04-26T00:55:49.661Z,6.3397
2023-04-26T00:56:50.348Z,6.3366
2023-04-26T00:57:51.000Z,6.2499
2023-04-26T00:58:51.870Z,6.3402
2023-04-26T00:59:52.828Z,6.3219
2023-04-26T01:00:53.811Z,6.2318
2023-04-26T01:01:54.530Z,6.2360
2023-04-26T01:02:55.314Z,6.1753
2023-04-26T01:03:56.131Z,6.1856
2023-04-26T01:04:57.037Z,6.2139
2023-04-26T01:05:57.688Z,6.1686
2023-04-26T01:06:58.390Z,6.2244
2023-04-26T01:07:59.102Z,6.0804
2023-04-26T01:08:59.773Z,6.1590
2023-04-26T01:10:00.464Z,6.1309
2023-04-26T01:11:01.157Z,6.0779
2023-04-26T01:12:01.867Z,6.0862
2023-04-26T01:13:02.582Z,6.1055
2023-04-26T01:14:03.257Z,6.1309
2023-04-26T01:15:03.978Z,6.0833
2023-04-26T01:16:04.694Z,6.1174
2023-04-26T01:17:05.340Z,6.1654
2023-04-26T01:18:06.093Z,6.1550
2023-04-26T01:19:06.735Z,6.1368
2023-04-26T01:20:07.422Z,6.1182
2023-04-26T01:21:08.126Z,6.1675
2023-04-26T01:22:08.873Z,6.1568
2023-04-26T01:23:09.535Z,6.1429
2023-04-26T01:24:10.209Z,6.0649
2023-04-26T01:25:10.898Z,6.1116
2023-04-26T01:26:11.595Z,6.0433
2023-04-26T01:27:12.230Z,6.0077
2023-04-26T01:28:12.878Z,5.9966
2023-04-26T01:29:13.598Z,5.9001
2023-04-26T01:30:14.361Z,5.8852
2023-04-26T01:31:15.030Z,5.8247
2023-04-26T01:32:15.734Z,5.8784
2023-04-26T01:33:16.472Z,5.8671
2023-04-26T01:34:17.192Z,5.9001
2023-04-26T01:35:17.916Z,5.7903
2023-04-26T01:36:18.565Z,5.7597
2023-04-26T01:37:19.231Z,5.7273
2023-04-26T01:38:19.963Z,5.7960
2023-04-26T01:39:20.603Z,5.8258
2023-04-26T01:40:21.358Z,5.8103
2023-04-26T01:41:21.984Z,5.8014
2023-04-26T01:42:22.689Z,5.7200
2023-04-26T01:43:23.388Z,5.7093
2023-04-26T01:44:24.053Z,5.7695
2023-04-26T01:45:24.739Z,5.7212
2023-04-26T01:46:25.442Z,5.7122
2023-04-26T01:47:26.121Z,5.6975
2023-04-26T01:48:26.784Z,5.7225
2023-04-26T01:49:27.455Z,5.7014
2023-04-26T01:50:28.122Z,5.6865
2023-04-26T01:51:28.962Z,5.7589
2023-04-26T01:52:29.784Z,5.6388
2023-04-26T01:53:30.531Z,5.6476
2023-04-26T01:54:31.189Z,5.6472
2023-04-26T01:55:31.855Z,5.6457
2023-04-26T01:56:32.666Z,5.6774
2023-04-26T01:57:33.407Z,5.7341
2023-04-26T01:58:34.100Z,5.7847
2023-04-26T01:59:34.737Z,5.7623
2023-04-26T02:00:35.454Z,5.6753
2023-04-26T02:01:36.118Z,5.5825
2023-04-26T02:02:36.945Z,5.5607
2023-04-26T02:03:37.844Z,5.6298
2023-04-26T02:04:38.565Z,5.5123
2023-04-26T02:05:39.194Z,5.4888
2023-04-26T02:06:39.896Z,5.4799
2023-04-26T02:07:40.609Z,5.3972
2023-04-26T02:08:41.247Z,5.3690
2023-04-26T02:09:41.943Z,5.3561
2023-04-26T02:10:42.659Z,5.3115
2023-04-26T02:11:43.358Z,5.2269
2023-04-26T02:12:44.066Z,5.3238
2023-04-26T02:13:44.711Z,5.3524
2023-04-26T02:14:45.361Z,5.4928
2023-04-26T02:15:46.127Z,5.4947
2023-04-26T02:16:46.881Z,5.4992
2023-04-26T02:17:47.547Z,5.5295
2023-04-26T02:18:48.289Z,5.5492
2023-04-26T02:19:48.939Z,5.5754
2023-04-26T02:20:49.650Z,5.5959
2023-04-26T02:21:50.337Z,5.6062
2023-04-26T02:22:50.998Z,5.6538
2023-04-26T02:23:51.629Z,5.6382
2023-04-26T02:24:52.319Z,5.7543
2023-04-26T02:25:52.987Z,5.7246
2023-04-26T02:26:53.682Z,5.7125
2023-04-26T02:27:54.357Z,5.6349
2023-04-26T02:28:55.159Z,5.6252
2023-04-26T02:29:55.846Z,5.6296
2023-04-26T02:30:56.556Z,5.5829
2023-04-26T02:31:57.377Z,5.6092
2023-04-26T02:32:58.092Z,5.6319
2023-04-26T02:33:58.778Z,5.6147
2023-04-26T02:34:59.527Z,5.5464
2023-04-26T02:36:00.186Z,5.5250
2023-04-26T02:37:00.912Z,5.4669
2023-04-26T02:38:01.632Z,5.4093
2023-04-26T02:39:02.325Z,5.4214
2023-04-26T02:40:03.054Z,5.4361
2023-04-26T02:41:03.940Z,5.3912
2023-04-26T02:42:04.708Z,5.4237
2023-04-26T02:43:05.385Z,5.4078
2023-04-26T02:44:06.091Z,5.4321
2023-04-26T02:45:06.854Z,5.4370
2023-04-26T02:46:07.563Z,5.4222
2023-04-26T02:47:08.321Z,5.4633
2023-04-26T02:48:09.083Z,5.3741
2023-04-26T02:49:09.750Z,5.4210
2023-04-26T02:50:10.420Z,5.5844
2023-04-26T02:51:11.104Z,5.4969
2023-04-26T02:52:11.814Z,5.6422
2023-04-26T02:53:12.514Z,5.6205
2023-04-26T02:54:13.252Z,5.5536
2023-04-26T02:55:13.928Z,5.6401
2023-04-26T02:56:14.620Z,5.6634
2023-04-26T02:57:15.287Z,5.6554
2023-04-26T02:58:16.000Z,5.6729
2023-04-26T02:59:16.673Z,5.5360
2023-04-26T03:00:17.399Z,5.4380
2023-04-26T03:01:18.159Z,5.4715
2023-04-26T03:02:18.970Z,5.5202
2023-04-26T03:03:19.910Z,5.5623
2023-04-26T03:04:21.030Z,5.5507
2023-04-26T03:05:21.705Z,5.6155
2023-04-26T03:06:22.428Z,5.6701
2023-04-26T03:07:23.138Z,5.6194
2023-04-26T03:08:23.988Z,5.6303
2023-04-26T03:09:24.606Z,5.6111
2023-04-26T03:10:25.285Z,5.6247
2023-04-26T03:11:26.011Z,5.6237
2023-04-26T03:12:26.123Z,5.6168
2023-04-26T03:13:26.852Z,5.6221
2023-04-26T03:14:27.528Z,5.6845
2023-04-26T03:15:28.216Z,5.6849
2023-04-26T03:16:28.969Z,5.7348
2023-04-26T03:17:29.625Z,5.7318
2023-04-26T03:18:30.363Z,5.7712
2023-04-26T03:19:31.020Z,5.8488
2023-04-26T03:20:31.685Z,5.8076
2023-04-26T03:21:32.357Z,5.8023
2023-04-26T03:22:33.036Z,5.7949
2023-04-26T03:23:33.760Z,5.6974
2023-04-26T03:24:34.448Z,5.6665
2023-04-26T03:25:35.154Z,5.7531
2023-04-26T03:26:35.838Z,5.7475
2023-04-26T03:27:36.506Z,5.7219
2023-04-26T03:28:37.203Z,5.7909
2023-04-26T03:29:37.920Z,5.7741
2023-04-26T03:30:38.621Z,5.8001
2023-04-26T03:31:39.461Z,5.7491
2023-04-26T03:32:40.185Z,5.6879
2023-04-26T03:33:40.787Z,5.7494
2023-04-26T03:34:41.490Z,5.7463
2023-04-26T03:35:42.192Z,5.7176
2023-04-26T03:36:42.927Z,5.7225
2023-04-26T03:37:43.575Z,5.7413
2023-04-26T03:38:44.247Z,5.7135
2023-04-26T03:39:44.952Z,5.7927
2023-04-26T03:40:45.684Z,5.6841
2023-04-26T03:41:46.367Z,5.6922
2023-04-26T03:42:47.122Z,5.7042
2023-04-26T03:43:47.767Z,5.6675
2023-04-26T03:44:48.466Z,5.6911
2023-04-26T03:45:49.148Z,5.7146
2023-04-26T03:46:49.902Z,5.6718
2023-04-26T03:47:50.693Z,5.6832
2023-04-26T03:48:51.703Z,5.6745
2023-04-26T03:49:52.808Z,5.6595
2023-04-26T03:50:53.505Z,5.6266
2023-04-26T03:51:54.181Z,5.6956
2023-04-26T03:52:54.882Z,5.6548
2023-04-26T03:53:55.593Z,5.6484
2023-04-26T03:54:56.264Z,5.5876
2023-04-26T03:55:56.936Z,5.5964
2023-04-26T03:56:57.619Z,5.5605
2023-04-26T03:57:58.534Z,5.5013
2023-04-26T03:58:59.173Z,5.4962
2023-04-26T03:59:59.934Z,5.5091
2023-04-26T04:01:00.571Z,5.4432
2023-04-26T04:02:01.267Z,5.4345
2023-04-26T04:03:02.016Z,5.3563
2023-04-26T04:04:02.935Z,5.3452
2023-04-26T04:05:03.853Z,5.3560
2023-04-26T04:06:04.620Z,5.3622
2023-04-26T04:07:05.308Z,5.3432
2023-04-26T04:08:06.017Z,5.2969
2023-04-26T04:09:06.728Z,5.3370
2023-04-26T04:10:07.401Z,5.3624
2023-04-26T04:11:08.137Z,5.4078
2023-04-26T04:12:08.834Z,5.3228
2023-04-26T04:13:09.547Z,5.3770
2023-04-26T04:14:10.302Z,5.3327
2023-04-26T04:15:10.998Z,5.3228
2023-04-26T04:16:11.756Z,5.3219
2023-04-26T04:17:12.428Z,5.2874
2023-04-26T04:18:13.177Z,5.2549
2023-04-26T04:19:13.888Z,5.2226
2023-04-26T04:20:14.622Z,5.2774
2023-04-26T04:21:15.347Z,5.3489
2023-04-26T04:22:16.071Z,5.3582
2023-04-26T04:23:16.787Z,5.2959
2023-04-26T04:24:17.429Z,5.1757
2023-04-26T04:25:18.108Z,5.2123
2023-04-26T04:26:18.754Z,5.2226
2023-04-26T04:27:19.523Z,5.2854
2023-04-26T04:28:20.174Z,5.3418
2023-04-26T04:29:20.875Z,5.4476
2023-04-26T04:30:21.584Z,5.4383
2023-04-26T04:31:22.363Z,5.4198
2023-04-26T04:32:23.181Z,5.4185
2023-04-26T04:33:23.878Z,5.4326
2023-04-26T04:34:24.575Z,5.4697
2023-04-26T04:35:25.251Z,5.4275
2023-04-26T04:36:25.924Z,5.4780
2023-04-26T04:37:26.615Z,5.5249
2023-04-26T04:38:27.315Z,5.5287
2023-04-26T04:39:27.953Z,5.5683
2023-04-26T04:40:28.663Z,5.5105
2023-04-26T04:41:29.404Z,5.4084
2023-04-26T04:42:30.087Z,5.4703
2023-04-26T04:43:31.087Z,5.4703
2023-04-26T04:44:31.885Z,5.4844
2023-04-26T04:45:32.574Z,5.5377
2023-04-26T04:46:33.312Z,5.5973
2023-04-26T04:47:34.247Z,5.6904
2023-04-26T04:48:34.995Z,5.4992
2023-04-26T04:49:35.710Z,5.5508
2023-04-26T04:50:36.394Z,5.6079
2023-04-26T04:51:37.122Z,5.6280
2023-04-26T04:52:37.923Z,5.6401
2023-04-26T04:53:38.638Z,5.6521
2023-04-26T04:54:39.250Z,5.6656
2023-04-26T04:55:39.980Z,5.6978
2023-04-26T04:56:40.622Z,5.6915
2023-04-26T04:57:43.117Z,5.5940
2023-04-26T04:58:43.948Z,5.6382
2023-04-26T04:59:44.737Z,5.6208
2023-04-26T05:00:45.412Z,5.6431
2023-04-26T05:01:46.134Z,5.6271
2023-04-26T05:02:46.951Z,5.6428
2023-04-26T05:03:47.776Z,5.6578
2023-04-26T05:04:48.541Z,5.6883
2023-04-26T05:05:49.294Z,5.6425
2023-04-26T05:06:50.039Z,5.6599
2023-04-26T05:07:50.900Z,5.6506
2023-04-26T05:08:51.628Z,5.6315
2023-04-26T05:09:52.325Z,5.6043
2023-04-26T05:10:52.958Z,5.6071
2023-04-26T05:11:53.620Z,5.5424
2023-04-26T05:12:54.340Z,5.5900
2023-04-26T05:13:55.592Z,5.6889
2023-04-26T05:14:56.699Z,5.7353
2023-04-26T05:15:57.503Z,5.6565
2023-04-26T05:16:58.205Z,5.7302
2023-04-26T05:17:58.966Z,5.6946
2023-04-26T05:18:59.670Z,5.7264
2023-04-26T05:20:00.494Z,5.7721
2023-04-26T05:21:01.201Z,5.6861
2023-04-26T05:22:01.907Z,5.6876
2023-04-26T05:23:02.626Z,5.6421
2023-04-26T05:24:03.363Z,5.7530
2023-04-26T05:25:04.064Z,5.6643
2023-04-26T05:26:04.747Z,5.7134
2023-04-26T05:27:05.443Z,5.6631
2023-04-26T05:28:06.144Z,5.7253
2023-04-26T05:29:06.811Z,5.7348
2023-04-26T05:30:07.454Z,5.7631
2023-04-26T05:31:10.632Z,5.6991
2023-04-26T05:32:09.354Z,5.7192
2023-04-26T05:33:10.073Z,5.6406
2023-04-26T05:34:10.743Z,5.6870
2023-04-26T05:35:11.397Z,5.7793
2023-04-26T05:36:12.083Z,5.7764
2023-04-26T05:37:12.742Z,5.6990
2023-04-26T05:38:13.485Z,5.8272
2023-04-26T05:39:14.157Z,5.7070
2023-04-26T05:40:14.837Z,5.8079
2023-04-26T05:41:15.570Z,5.8394
2023-04-26T05:42:17.855Z,5.8988
2023-04-26T05:43:19.136Z,5.8545
2023-04-26T05:44:19.928Z,5.8454
2023-04-26T05:45:20.626Z,5.8882
2023-04-26T05:46:21.607Z,5.7705
2023-04-26T05:47:22.613Z,5.9108
2023-04-26T05:48:23.331Z,5.8982
2023-04-26T05:49:24.017Z,5.7831
2023-04-26T05:50:24.749Z,5.8968
2023-04-26T05:51:25.456Z,5.9082
2023-04-26T05:52:26.179Z,5.9825
2023-04-26T05:53:26.923Z,5.8318
2023-04-26T05:54:27.628Z,5.6883
2023-04-26T05:55:28.367Z,5.8857
2023-04-26T05:56:29.121Z,5.9393
2023-04-26T05:57:29.943Z,5.8466
2023-04-26T05:58:30.662Z,5.9695
2023-04-26T05:59:31.376Z,5.8147
2023-04-26T06:00:32.108Z,5.9485
2023-04-26T06:01:32.873Z,5.8758
2023-04-26T06:02:33.876Z,6.0733
2023-04-26T06:03:35.151Z,6.0379
2023-04-26T06:04:36.191Z,6.0043
2023-04-26T06:05:36.944Z,5.6298
2023-04-26T06:06:37.785Z,5.4549
2023-04-26T06:07:38.499Z,5.5230
2023-04-26T06:08:39.229Z,5.5984
2023-04-26T06:09:39.935Z,5.6014
2023-04-26T06:10:40.673Z,5.7831
2023-04-26T06:11:41.321Z,6.0215
2023-04-26T06:12:42.056Z,5.8922
2023-04-26T06:13:43.126Z,5.9930
2023-04-26T06:14:43.946Z,6.0578
2023-04-26T06:15:44.605Z,6.0814
2023-04-26T06:16:45.428Z,6.1188
2023-04-26T06:17:46.132Z,5.8605
2023-04-26T06:18:46.902Z,5.8019
2023-04-26T06:19:47.698Z,5.8801
2023-04-26T06:20:48.440Z,6.0893
2023-04-26T06:21:49.169Z,6.1803
2023-04-26T06:22:49.939Z,6.2316
2023-04-26T06:23:50.942Z,6.2555
2023-04-26T06:24:52.004Z,5.9648
2023-04-26T06:25:52.669Z,5.6921
2023-04-26T06:26:53.414Z,5.7951
2023-04-26T06:27:54.163Z,5.6417
2023-04-26T06:28:54.890Z,5.7296
2023-04-26T06:29:55.605Z,5.7547
2023-04-26T06:30:56.450Z,5.9189
2023-04-26T06:31:57.173Z,5.9313
2023-04-26T06:32:58.032Z,6.2023
2023-04-26T06:33:58.779Z,6.2381
2023-04-26T06:34:59.509Z,6.2537
2023-04-26T06:36:00.223Z,6.1294
2023-04-26T06:37:00.994Z,5.9325
2023-04-26T06:38:01.689Z,6.0591
2023-04-26T06:39:02.419Z,6.0069
2023-04-26T06:40:03.124Z,5.9561
2023-04-26T06:41:03.863Z,6.0995
2023-04-26T06:42:04.633Z,6.2591
2023-04-26T06:43:05.370Z,5.9005
2023-04-26T06:44:06.126Z,5.9820
2023-04-26T06:45:06.881Z,6.0409
2023-04-26T06:46:07.602Z,5.9501
2023-04-26T06:47:08.311Z,6.1658
2023-04-26T06:48:09.098Z,6.1355
2023-04-26T06:49:09.870Z,6.1329
2023-04-26T06:50:10.614Z,6.1481
2023-04-26T06:51:11.390Z,6.1063
2023-04-26T06:52:12.215Z,5.9461
2023-04-26T06:53:12.922Z,5.8772
2023-04-26T06:54:13.708Z,6.0817
2023-04-26T06:55:14.442Z,6.3564
2023-04-26T06:56:15.133Z,6.3931
2023-04-26T06:57:15.874Z,6.5933
2023-04-26T06:58:16.824Z,6.6139
2023-04-26T06:59:17.572Z,6.6436
2023-04-26T07:00:18.317Z,6.6075
2023-04-26T07:01:19.069Z,6.1673
2023-04-26T07:02:20.068Z,6.2820
2023-04-26T07:03:21.033Z,6.4649
2023-04-26T07:04:22.047Z,6.5444
2023-04-26T07:05:22.911Z,6.6752
2023-04-26T07:06:23.677Z,6.7181
2023-04-26T07:07:24.355Z,6.9192
2023-04-26T07:08:25.100Z,6.9544
2023-04-26T07:09:25.804Z,6.8586
2023-04-26T07:10:26.535Z,7.0186
2023-04-26T07:11:27.270Z,6.9613
2023-04-26T07:12:27.960Z,6.8146
2023-04-26T07:13:28.658Z,6.8174
2023-04-26T07:14:29.343Z,6.9582
2023-04-26T07:15:30.041Z,6.6814
2023-04-26T07:16:30.803Z,6.5449
2023-04-26T07:17:31.600Z,6.3369
2023-04-26T07:18:32.323Z,6.6001
2023-04-26T07:19:33.093Z,6.6060
2023-04-26T07:20:33.871Z,6.4097
2023-04-26T07:21:34.570Z,6.2473
2023-04-26T07:22:35.296Z,6.2726
2023-04-26T07:23:36.090Z,6.2068
2023-04-26T07:24:36.774Z,6.4782
2023-04-26T07:25:37.488Z,6.7971
2023-04-26T07:26:38.208Z,6.7443
2023-04-26T07:27:38.967Z,6.9091
2023-04-26T07:28:39.688Z,6.6684
2023-04-26T07:29:40.435Z,6.8274
2023-04-26T07:30:41.145Z,6.9199
2023-04-26T07:31:41.817Z,7.2082
2023-04-26T07:32:42.659Z,7.2869
2023-04-26T07:33:43.505Z,7.2242
2023-04-26T07:34:44.251Z,7.2773
2023-04-26T07:35:44.988Z,7.5387
2023-04-26T07:36:45.705Z,7.4444
2023-04-26T07:37:46.412Z,7.1961
2023-04-26T07:38:47.179Z,7.4281
2023-04-26T07:39:47.837Z,7.3382
2023-04-26T07:40:48.567Z,7.3346
2023-04-26T07:41:49.238Z,7.2695
2023-04-26T07:42:49.975Z,7.2609
2023-04-26T07:43:50.882Z,7.6065
2023-04-26T07:44:51.973Z,7.5774
2023-04-26T07:45:52.727Z,7.6944
2023-04-26T07:46:53.416Z,7.4826
2023-04-26T07:47:54.781Z,7.3196
2023-04-26T07:48:55.884Z,7.3372
2023-04-26T07:49:56.603Z,7.4473
2023-04-26T07:50:57.327Z,7.1547
2023-04-26T07:51:58.023Z,7.3292
2023-04-26T07:52:58.769Z,7.3546
2023-04-26T07:53:59.440Z,6.8172
2023-04-26T07:55:00.161Z,7.0219
2023-04-26T07:56:00.882Z,7.3783
2023-04-26T07:57:01.636Z,7.4989
2023-04-26T07:58:02.314Z,7.3256
2023-04-26T07:59:03.053Z,7.4665
2023-04-26T08:00:03.744Z,7.7662
2023-04-26T08:01:04.443Z,7.8385
2023-04-26T08:02:05.199Z,7.8730
2023-04-26T08:03:06.108Z,7.7505
2023-04-26T08:04:07.435Z,7.8527
2023-04-26T08:05:08.445Z,7.9107
2023-04-26T08:06:09.233Z,7.6429
2023-04-26T08:07:09.968Z,7.2628
2023-04-26T08:08:10.616Z,7.4550
2023-04-26T08:09:12.499Z,7.5987
2023-04-26T08:10:13.331Z,7.5865
2023-04-26T08:11:14.082Z,7.6648
2023-04-26T08:12:14.830Z,7.3638
2023-04-26T08:13:15.509Z,7.3022
2023-04-26T08:14:16.399Z,7.1537
2023-04-26T08:15:17.103Z,7.1231
2023-04-26T08:16:17.830Z,7.4084
2023-04-26T08:17:18.568Z,7.8822
2023-04-26T08:18:19.292Z,7.9510
2023-04-26T08:19:20.069Z,7.9503
2023-04-26T08:20:20.769Z,7.8465
2023-04-26T08:21:21.510Z,8.0019
2023-04-26T08:22:22.254Z,7.9969
2023-04-26T08:23:22.983Z,8.1767
2023-04-26T08:24:23.884Z,7.9745
2023-04-26T08:25:24.768Z,7.8038
2023-04-26T08:26:25.494Z,7.9644
2023-04-26T08:27:26.236Z,8.1587
2023-04-26T08:28:26.925Z,8.3202
2023-04-26T08:29:27.684Z,8.3732
2023-04-26T08:30:28.411Z,8.3095
2023-04-26T08:31:29.256Z,8.2322
2023-04-26T08:32:30.066Z,8.2352
2023-04-26T08:33:30.762Z,8.2348
2023-04-26T08:34:31.505Z,8.2467
2023-04-26T08:35:32.271Z,8.0769
2023-04-26T08:36:32.962Z,8.1636
2023-04-26T08:37:33.660Z,7.8663
2023-04-26T08:38:34.426Z,8.1012
2023-04-26T08:39:35.160Z,8.3015
2023-04-26T08:40:35.885Z,8.1795
2023-04-26T08:41:36.595Z,8.2430
2023-04-26T08:42:38.002Z,8.1494
2023-04-26T08:43:38.976Z,8.2197
2023-04-26T08:44:39.674Z,8.4739
2023-04-26T08:45:40.495Z,8.1507
2023-04-26T08:46:41.226Z,8.3328
2023-04-26T08:47:42.022Z,8.6260
2023-04-26T08:48:42.727Z,8.4383
2023-04-26T08:49:43.443Z,8.3030
2023-04-26T08:50:44.109Z,8.2640
2023-04-26T08:51:44.855Z,8.3858
2023-04-26T08:52:45.632Z,8.3645
2023-04-26T08:53:46.298Z,8.6111
2023-04-26T08:54:47.036Z,8.6862
2023-04-26T08:55:47.724Z,8.5862
2023-04-26T08:56:48.415Z,8.5015
2023-04-26T08:57:49.105Z,8.4913
2023-04-26T08:58:49.790Z,8.3872
2023-04-26T08:59:50.524Z,8.3960
2023-04-26T09:00:51.383Z,8.4804
2023-04-26T09:01:52.119Z,8.2431
2023-04-26T09:02:53.197Z,8.3879
2023-04-26T09:03:54.585Z,8.1236
2023-04-26T09:04:55.973Z,8.4241
2023-04-26T09:05:56.930Z,8.3091
2023-04-26T09:06:57.652Z,8.4255
2023-04-26T09:07:58.344Z,8.4809
2023-04-26T09:08:59.036Z,8.9019
2023-04-26T09:09:59.840Z,8.7656
2023-04-26T09:11:00.531Z,8.9689
2023-04-26T09:12:01.230Z,8.9337
2023-04-26T09:13:01.957Z,8.9755
2023-04-26T09:14:02.662Z,9.0995
2023-04-26T09:15:03.372Z,9.1959
2023-04-26T09:16:05.267Z,9.4987
2023-04-26T09:17:06.323Z,9.6276
2023-04-26T09:18:07.043Z,9.5585
2023-04-26T09:19:07.769Z,9.6449
2023-04-26T09:20:08.608Z,9.5236
2023-04-26T09:21:09.305Z,9.7771
2023-04-26T09:22:10.026Z,9.7237
2023-04-26T09:23:10.736Z,9.5965
2023-04-26T09:24:11.404Z,9.4606
2023-04-26T09:25:12.103Z,9.5921
2023-04-26T09:26:12.791Z,9.6329
2023-04-26T09:27:13.509Z,9.6520
2023-04-26T09:28:14.182Z,9.9111
2023-04-26T09:29:14.970Z,9.7329
2023-04-26T09:30:15.665Z,9.5893
2023-04-26T09:31:16.399Z,9.3000
2023-04-26T09:32:17.079Z,9.7113
2023-04-26T09:33:17.897Z,10.1343
2023-04-26T09:34:18.568Z,10.2543
2023-04-26T09:35:19.278Z,10.2406
2023-04-26T09:36:19.946Z,10.5877
2023-04-26T09:37:20.627Z,10.6419
2023-04-26T09:38:21.364Z,9.8802
2023-04-26T09:39:22.031Z,10.0306
2023-04-26T09:40:22.788Z,10.3691
2023-04-26T09:41:23.518Z,10.1788
2023-04-26T09:42:24.192Z,10.2763
2023-04-26T09:43:24.826Z,10.2126
2023-04-26T09:44:25.469Z,10.4025
2023-04-26T09:45:26.119Z,10.7102
2023-04-26T09:46:26.843Z,10.3617
2023-04-26T09:47:27.474Z,10.6981
2023-04-26T09:48:28.113Z,10.4919
2023-04-26T09:49:28.766Z,10.3589
2023-04-26T09:50:29.459Z,10.3753
2023-04-26T09:51:30.145Z,10.3501
2023-04-26T09:52:30.792Z,10.2930
2023-04-26T09:53:31.434Z,10.2439
2023-04-26T09:54:32.046Z,10.3543
2023-04-26T09:55:35.468Z,10.3637
2023-04-26T09:56:33.819Z,10.5460
2023-04-26T09:57:34.472Z,10.6578
2023-04-26T09:58:35.093Z,10.5473
2023-04-26T09:59:35.725Z,10.4647
2023-04-26T10:00:36.386Z,10.8184
2023-04-26T10:01:37.088Z,10.5600
2023-04-26T10:02:37.808Z,10.2856
2023-04-26T10:03:38.798Z,10.2961
2023-04-26T10:04:39.788Z,10.3399
2023-04-26T10:05:40.455Z,10.1967
2023-04-26T10:06:41.147Z,10.3706
2023-04-26T10:07:41.875Z,10.7103
2023-04-26T10:08:42.570Z,10.7618
2023-04-26T10:09:43.208Z,10.7307
2023-04-26T10:10:43.929Z,10.7713
2023-04-26T10:11:44.576Z,10.4184
2023-04-26T10:12:45.264Z,9.6338
2023-04-26T10:13:45.991Z,10.1907
2023-04-26T10:14:46.694Z,10.3355
2023-04-26T10:15:47.406Z,10.6163
2023-04-26T10:16:48.112Z,10.6293
2023-04-26T10:17:50.239Z,10.5868
2023-04-26T10:18:50.185Z,10.3751
2023-04-26T10:19:50.939Z,10.1571
2023-04-26T10:20:51.609Z,10.1351
2023-04-26T10:21:52.289Z,10.2161
2023-04-26T10:22:52.963Z,10.7072
2023-04-26T10:23:53.700Z,10.4306
2023-04-26T10:24:54.391Z,10.5322
2023-04-26T10:25:55.082Z,10.6107
2023-04-26T10:26:55.810Z,10.9810
2023-04-26T10:27:56.525Z,11.4692
2023-04-26T10:29:02.098Z,11.2824
2023-04-26T10:29:58.330Z,11.3136
2023-04-26T10:30:58.996Z,10.9963
2023-04-26T10:31:59.653Z,10.9799
2023-04-26T10:33:00.331Z,11.6198
2023-04-26T10:34:00.948Z,11.6440
2023-04-26T10:35:01.621Z,12.1053
2023-04-26T10:36:02.260Z,11.9832
2023-04-26T10:37:02.995Z,12.2801
2023-04-26T10:38:03.638Z,12.3774
2023-04-26T10:39:04.261Z,12.5273
2023-04-26T10:40:04.863Z,12.3922
2023-04-26T10:41:05.545Z,12.0237
2023-04-26T10:42:06.171Z,12.3329
2023-04-26T10:43:06.806Z,12.1318
2023-04-26T10:44:07.421Z,12.2143
2023-04-26T10:45:08.054Z,12.5549
2023-04-26T10:46:08.695Z,12.6461
2023-04-26T10:47:09.284Z,12.4202
2023-04-26T10:48:09.964Z,12.0331
2023-04-26T10:49:10.589Z,11.8588
2023-04-26T10:50:11.215Z,11.8165
2023-04-26T10:51:11.958Z,12.1994
2023-04-26T10:52:12.554Z,12.2191
2023-04-26T10:53:13.198Z,12.3263
2023-04-26T10:54:13.836Z,12.2213
2023-04-26T10:55:14.469Z,11.8314
2023-04-26T10:56:15.083Z,11.9066
2023-04-26T10:57:15.716Z,11.5230
2023-04-26T10:58:16.323Z,12.1838
2023-04-26T10:59:36.125Z,12.3485
2023-04-26T11:00:18.001Z,12.8443
2023-04-26T11:01:18.751Z,13.1689
2023-04-26T11:02:19.408Z,12.5043
2023-04-26T11:03:20.104Z,12.3079
2023-04-26T11:04:20.897Z,12.5309
2023-04-26T11:05:23.557Z,12.5731
2023-04-26T11:06:22.670Z,12.7048
2023-04-26T11:07:23.291Z,12.5592
2023-04-26T11:08:23.934Z,12.5939
2023-04-26T11:09:24.552Z,12.7098
2023-04-26T11:10:25.219Z,12.2437
2023-04-26T11:11:25.905Z,12.1591
2023-04-26T11:12:26.586Z,11.3170
2023-04-26T11:13:27.211Z,11.4656
2023-04-26T11:14:27.872Z,11.6454
2023-04-26T11:15:28.506Z,11.4018
2023-04-26T11:16:29.302Z,11.4750
2023-04-26T11:17:30.002Z,11.7347
2023-04-26T11:18:30.629Z,12.4543
2023-04-26T11:19:31.256Z,13.3835
2023-04-26T11:20:31.830Z,13.6869
2023-04-26T11:21:32.444Z,13.4185
2023-04-26T11:22:33.023Z,13.6659
2023-04-26T11:23:33.849Z,13.9519
2023-04-26T11:24:34.448Z,13.9514
2023-04-26T11:25:35.041Z,14.1205
2023-04-26T11:26:35.652Z,13.8290
2023-04-26T11:27:36.163Z,13.8243
2023-04-26T11:28:36.737Z,13.9127
2023-04-26T11:29:37.331Z,13.2978
2023-04-26T11:30:38.506Z,13.3750
2023-04-26T11:31:39.460Z,13.8031
2023-04-26T11:32:40.120Z,13.6982
2023-04-26T11:33:40.699Z,13.7636
2023-04-26T11:34:41.297Z,13.3848
2023-04-26T11:35:41.869Z,14.3409
2023-04-26T11:36:42.473Z,13.9833
2023-04-26T11:37:43.051Z,14.1700
2023-04-26T11:38:43.694Z,13.9791
2023-04-26T11:39:44.318Z,14.6962
2023-04-26T11:40:44.867Z,15.1007
2023-04-26T11:41:45.436Z,14.4023
2023-04-26T11:42:46.029Z,14.0854
2023-04-26T11:43:46.634Z,13.7948
2023-04-26T11:44:47.879Z,13.8577
2023-04-26T11:45:48.608Z,13.8094
2023-04-26T11:46:49.291Z,13.5010
2023-04-26T11:47:49.899Z,12.8451
2023-04-26T11:48:50.425Z,13.1130
2023-04-26T11:49:51.070Z,13.2118
2023-04-26T11:50:51.614Z,13.4124
2023-04-26T11:51:52.218Z,13.4114
2023-04-26T11:52:52.773Z,14.0475
2023-04-26T11:53:53.318Z,13.5348
2023-04-26T11:54:53.869Z,14.0191
2023-04-26T11:55:54.459Z,14.4278
2023-04-26T11:56:55.050Z,14.5896
2023-04-26T11:57:55.865Z,14.0353
2023-04-26T11:58:56.834Z,13.9776
2023-04-26T11:59:57.639Z,13.9628
2023-04-26T12:00:58.213Z,13.9079
2023-04-26T12:01:58.936Z,14.0456
2023-04-26T12:02:59.715Z,14.1700
2023-04-26T12:04:00.792Z,14.2798
2023-04-26T12:05:01.822Z,14.4420
2023-04-26T12:06:02.545Z,13.7786
2023-04-26T12:07:03.113Z,13.4684
2023-04-26T12:08:03.681Z,13.6462
2023-04-26T12:09:04.258Z,13.5262
2023-04-26T12:10:04.880Z,13.3415
2023-04-26T12:11:05.497Z,13.3171
2023-04-26T12:12:06.092Z,13.6102
2023-04-26T12:13:06.695Z,13.5915
2023-04-26T12:14:07.377Z,13.1720
2023-04-26T12:15:08.140Z,12.8788
2023-04-26T12:16:22.277Z,13.0645
2023-04-26T12:17:09.967Z,13.5606
2023-04-26T12:18:11.072Z,13.5975
2023-04-26T12:19:12.243Z,13.5552
2023-04-26T12:20:12.917Z,13.3111
2023-04-26T12:21:13.525Z,13.1497
2023-04-26T12:22:14.149Z,13.6274
2023-04-26T12:23:14.756Z,13.9021
2023-04-26T12:24:15.350Z,13.6329
2023-04-26T12:25:15.971Z,13.9854
2023-04-26T12:26:16.601Z,13.6933
2023-04-26T12:27:17.170Z,13.6674
2023-04-26T12:28:17.882Z,13.5807
2023-04-26T12:29:18.548Z,13.7066
2023-04-26T12:30:19.200Z,13.8770
2023-04-26T12:31:19.857Z,14.2923
2023-04-26T12:32:22.013Z,13.5177